sensor_id;sensor_type;location;lat;lon;timestamp;pressure;altitude;pressure_sealevel;temperature;humidity
33153;BME280;19509;43.862;26.176;2022-09-21T00:00:26;100849.50;;;11.29;64.99
33153;BME280;19509;43.862;26.176;2022-09-21T00:02:55;100850.31;;;11.43;64.95
33153;BME280;19509;43.862;26.176;2022-09-21T00:05:21;100845.97;;;11.42;64.40
33153;BME280;19509;43.862;26.176;2022-09-21T00:07:47;100847.63;;;11.43;64.49
33153;BME280;19509;43.862;26.176;2022-09-21T00:10:12;100850.16;;;11.24;65.51
33153;BME280;19509;43.862;26.176;2022-09-21T00:12:38;100856.38;;;11.18;66.60
33153;BME280;19509;43.862;26.176;2022-09-21T00:15:08;100852.44;;;11.07;66.95
33153;BME280;19509;43.862;26.176;2022-09-21T00:17:35;100874.59;;;11.09;66.80
33153;BME280;19509;43.862;26.176;2022-09-21T00:20:03;100852.44;;;11.14;66.32
33153;BME280;19509;43.862;26.176;2022-09-21T00:22:31;100849.28;;;11.17;65.80
33153;BME280;19509;43.862;26.176;2022-09-21T00:24:56;100845.19;;;11.15;65.46
33153;BME280;19509;43.862;26.176;2022-09-21T00:27:22;100853.66;;;11.25;65.74
33153;BME280;19509;43.862;26.176;2022-09-21T00:29:58;100835.63;;;11.12;65.55
33153;BME280;19509;43.862;26.176;2022-09-21T00:32:26;100856.34;;;11.25;65.92
33153;BME280;19509;43.862;26.176;2022-09-21T00:34:51;100859.88;;;11.19;65.69
33153;BME280;19509;43.862;26.176;2022-09-21T00:37:18;100855.09;;;11.21;65.87
33153;BME280;19509;43.862;26.176;2022-09-21T00:39:43;100861.75;;;11.38;65.54
33153;BME280;19509;43.862;26.176;2022-09-21T00:42:12;100859.06;;;11.31;65.94
33153;BME280;19509;43.862;26.176;2022-09-21T00:44:40;100856.97;;;11.33;65.75
33153;BME280;19509;43.862;26.176;2022-09-21T00:47:13;100859.06;;;11.31;65.74
33153;BME280;19509;43.862;26.176;2022-09-21T00:49:42;100859.25;;;11.23;66.08
33153;BME280;19509;43.862;26.176;2022-09-21T00:52:10;100867.75;;;11.27;66.09
33153;BME280;19509;43.862;26.176;2022-09-21T00:55:25;100865.44;;;11.30;65.22
33153;BME280;19509;43.862;26.176;2022-09-21T00:57:45;100879.56;;;11.32;65.27
33153;BME280;19509;43.862;26.176;2022-09-21T01:00:13;100859.88;;;11.25;65.87
33153;BME280;19509;43.862;26.176;2022-09-21T01:02:39;100865.03;;;11.33;65.10
33153;BME280;19509;43.862;26.176;2022-09-21T01:05:06;100868.16;;;11.30;65.20
33153;BME280;19509;43.862;26.176;2022-09-21T01:07:36;100859.47;;;11.28;65.48
33153;BME280;19509;43.862;26.176;2022-09-21T01:10:08;100860.47;;;11.21;66.42
33153;BME280;19509;43.862;26.176;2022-09-21T01:23:58;100863.38;;;11.52;64.11
33153;BME280;19509;43.862;26.176;2022-09-21T01:35:23;100857.75;;;11.54;65.66
33153;BME280;19509;43.862;26.176;2022-09-21T01:38:30;100854.06;;;11.55;65.52
33153;BME280;19509;43.862;26.176;2022-09-21T01:40:58;100860.69;;;11.52;65.76
33153;BME280;19509;43.862;26.176;2022-09-21T01:43:31;100850.91;;;11.51;66.09
33153;BME280;19509;43.862;26.176;2022-09-21T01:45:59;100844.94;;;11.43;65.96
33153;BME280;19509;43.862;26.176;2022-09-21T01:48:32;100854.66;;;11.50;65.62
33153;BME280;19509;43.862;26.176;2022-09-21T01:51:02;100854.47;;;11.39;65.35
33153;BME280;19509;43.862;26.176;2022-09-21T01:53:35;100846.38;;;11.45;65.01
33153;BME280;19509;43.862;26.176;2022-09-21T01:56:24;100847.22;;;11.32;64.59
33153;BME280;19509;43.862;26.176;2022-09-21T02:01:42;100850.13;;;11.31;63.87
33153;BME280;19509;43.862;26.176;2022-09-21T02:04:11;100829.19;;;11.13;64.09
33153;BME280;19509;43.862;26.176;2022-09-21T02:06:39;100852.22;;;11.22;64.22
33153;BME280;19509;43.862;26.176;2022-09-21T02:09:06;100847.47;;;11.18;64.21
33153;BME280;19509;43.862;26.176;2022-09-21T02:11:33;100853.03;;;11.16;63.93
33153;BME280;19509;43.862;26.176;2022-09-21T02:13:59;100850.75;;;11.13;63.68
33153;BME280;19509;43.862;26.176;2022-09-21T02:16:41;100859.47;;;11.15;63.84
33153;BME280;19509;43.862;26.176;2022-09-21T02:19:22;100857.38;;;11.17;63.80
33153;BME280;19509;43.862;26.176;2022-09-21T02:21:53;100866.72;;;11.08;63.30
33153;BME280;19509;43.862;26.176;2022-09-21T02:30:35;100861.72;;;10.85;64.44
33153;BME280;19509;43.862;26.176;2022-09-21T02:32:59;100849.72;;;10.81;64.54
33153;BME280;19509;43.862;26.176;2022-09-21T02:38:14;100868.94;;;10.71;65.12
33153;BME280;19509;43.862;26.176;2022-09-21T02:43:36;100872.03;;;10.61;65.09
33153;BME280;19509;43.862;26.176;2022-09-21T02:46:10;100867.50;;;10.69;64.54
33153;BME280;19509;43.862;26.176;2022-09-21T02:48:48;100870.41;;;10.67;64.76
33153;BME280;19509;43.862;26.176;2022-09-21T02:51:24;100873.91;;;10.68;64.63
33153;BME280;19509;43.862;26.176;2022-09-21T02:53:52;100873.06;;;10.54;64.90
33153;BME280;19509;43.862;26.176;2022-09-21T02:56:19;100877.41;;;10.55;64.79
33153;BME280;19509;43.862;26.176;2022-09-21T02:58:48;100877.16;;;10.36;65.56
33153;BME280;19509;43.862;26.176;2022-09-21T03:01:16;100872.19;;;10.40;65.40
33153;BME280;19509;43.862;26.176;2022-09-21T03:03:43;100876.31;;;10.42;65.20
33153;BME280;19509;43.862;26.176;2022-09-21T03:06:09;100869.88;;;10.30;64.99
33153;BME280;19509;43.862;26.176;2022-09-21T03:08:35;100865.47;;;10.23;65.13
33153;BME280;19509;43.862;26.176;2022-09-21T03:11:00;100878.47;;;10.12;65.64
33153;BME280;19509;43.862;26.176;2022-09-21T03:13:26;100875.28;;;9.95;66.36
33153;BME280;19509;43.862;26.176;2022-09-21T03:15:59;100874.75;;;9.72;67.11
33153;BME280;19509;43.862;26.176;2022-09-21T03:18:25;100881.03;;;9.51;68.09
33153;BME280;19509;43.862;26.176;2022-09-21T03:20:51;100879.72;;;9.47;68.47
33153;BME280;19509;43.862;26.176;2022-09-21T03:23:16;100882.41;;;9.47;68.74
33153;BME280;19509;43.862;26.176;2022-09-21T03:25:45;100888.16;;;9.44;68.83
33153;BME280;19509;43.862;26.176;2022-09-21T03:28:12;100886.47;;;9.36;69.17
33153;BME280;19509;43.862;26.176;2022-09-21T03:30:38;100884.38;;;9.32;69.30
33153;BME280;19509;43.862;26.176;2022-09-21T03:33:04;100882.97;;;9.36;69.03
33153;BME280;19509;43.862;26.176;2022-09-21T03:35:32;100879.19;;;9.30;68.82
33153;BME280;19509;43.862;26.176;2022-09-21T03:38:00;100887.28;;;9.37;69.31
33153;BME280;19509;43.862;26.176;2022-09-21T03:40:26;100888.22;;;9.22;68.88
33153;BME280;19509;43.862;26.176;2022-09-21T03:42:53;100899.16;;;9.21;68.51
33153;BME280;19509;43.862;26.176;2022-09-21T03:45:19;100889.41;;;8.92;69.23
33153;BME280;19509;43.862;26.176;2022-09-21T03:47:46;100897.03;;;8.52;71.20
33153;BME280;19509;43.862;26.176;2022-09-21T03:50:12;100897.56;;;8.62;71.43
33153;BME280;19509;43.862;26.176;2022-09-21T03:52:38;100892.41;;;8.82;71.24
33153;BME280;19509;43.862;26.176;2022-09-21T03:55:06;100886.72;;;8.92;70.91
33153;BME280;19509;43.862;26.176;2022-09-21T03:57:33;100892.84;;;9.07;70.67
33153;BME280;19509;43.862;26.176;2022-09-21T04:00:00;100900.75;;;9.15;70.50
33153;BME280;19509;43.862;26.176;2022-09-21T04:02:28;100903.72;;;9.20;70.19
33153;BME280;19509;43.862;26.176;2022-09-21T04:04:53;100907.34;;;9.13;70.98
33153;BME280;19509;43.862;26.176;2022-09-21T04:07:19;100907.28;;;9.06;71.23
33153;BME280;19509;43.862;26.176;2022-09-21T04:09:45;100908.09;;;9.07;70.96
33153;BME280;19509;43.862;26.176;2022-09-21T04:12:10;100900.31;;;9.12;70.89
33153;BME280;19509;43.862;26.176;2022-09-21T04:14:35;100898.47;;;9.12;70.11
33153;BME280;19509;43.862;26.176;2022-09-21T04:17:01;100903.38;;;9.09;70.35
33153;BME280;19509;43.862;26.176;2022-09-21T04:19:27;100903.00;;;9.12;70.02
33153;BME280;19509;43.862;26.176;2022-09-21T04:21:52;100906.47;;;9.06;69.93
33153;BME280;19509;43.862;26.176;2022-09-21T04:24:18;100897.50;;;8.98;70.36
33153;BME280;19509;43.862;26.176;2022-09-21T04:26:44;100903.72;;;8.99;70.21
33153;BME280;19509;43.862;26.176;2022-09-21T04:29:11;100909.34;;;9.04;70.20
33153;BME280;19509;43.862;26.176;2022-09-21T04:31:37;100900.47;;;9.04;70.11
33153;BME280;19509;43.862;26.176;2022-09-21T04:34:03;100912.84;;;9.05;69.45
33153;BME280;19509;43.862;26.176;2022-09-21T04:36:28;100921.59;;;8.70;70.77
33153;BME280;19509;43.862;26.176;2022-09-21T04:38:57;100918.03;;;8.34;72.26
33153;BME280;19509;43.862;26.176;2022-09-21T04:41:22;100920.09;;;8.17;72.74
33153;BME280;19509;43.862;26.176;2022-09-21T04:43:48;100916.84;;;8.36;72.89
33153;BME280;19509;43.862;26.176;2022-09-21T04:46:16;100924.72;;;8.52;72.48
33153;BME280;19509;43.862;26.176;2022-09-21T04:48:43;100925.03;;;8.64;71.66
33153;BME280;19509;43.862;26.176;2022-09-21T04:51:10;100923.91;;;8.73;70.97
33153;BME280;19509;43.862;26.176;2022-09-21T04:53:37;100924.00;;;8.65;71.15
33153;BME280;19509;43.862;26.176;2022-09-21T04:56:04;100936.75;;;8.78;71.25
33153;BME280;19509;43.862;26.176;2022-09-21T04:58:30;100929.88;;;8.90;70.76
33153;BME280;19509;43.862;26.176;2022-09-21T05:00:56;100933.22;;;8.99;70.50
33153;BME280;19509;43.862;26.176;2022-09-21T05:03:23;100933.56;;;9.11;70.29
33153;BME280;19509;43.862;26.176;2022-09-21T05:05:53;100930.31;;;9.15;69.81
33153;BME280;19509;43.862;26.176;2022-09-21T05:08:20;100923.19;;;9.29;69.05
33153;BME280;19509;43.862;26.176;2022-09-21T05:11:07;100924.56;;;9.46;68.47
33153;BME280;19509;43.862;26.176;2022-09-21T05:13:33;100921.75;;;9.55;68.31
33153;BME280;19509;43.862;26.176;2022-09-21T05:15:58;100932.78;;;9.66;68.20
33153;BME280;19509;43.862;26.176;2022-09-21T05:18:24;100933.88;;;9.72;68.01
33153;BME280;19509;43.862;26.176;2022-09-21T05:20:53;100926.63;;;9.73;67.92
33153;BME280;19509;43.862;26.176;2022-09-21T05:23:20;100920.13;;;9.95;67.01
33153;BME280;19509;43.862;26.176;2022-09-21T05:25:46;100927.31;;;10.16;66.71
33153;BME280;19509;43.862;26.176;2022-09-21T05:28:11;100925.06;;;10.19;66.65
33153;BME280;19509;43.862;26.176;2022-09-21T05:30:37;100926.97;;;10.32;66.01
33153;BME280;19509;43.862;26.176;2022-09-21T05:33:03;100924.78;;;10.49;65.64
33153;BME280;19509;43.862;26.176;2022-09-21T05:35:43;100926.53;;;10.83;64.68
33153;BME280;19509;43.862;26.176;2022-09-21T05:38:20;100933.03;;;11.35;63.33
33153;BME280;19509;43.862;26.176;2022-09-21T05:40:46;100918.75;;;11.42;62.86
33153;BME280;19509;43.862;26.176;2022-09-21T05:43:12;100925.78;;;11.36;63.60
33153;BME280;19509;43.862;26.176;2022-09-21T05:46:02;100917.69;;;11.43;63.33
33153;BME280;19509;43.862;26.176;2022-09-21T05:48:45;100907.50;;;11.51;63.94
33153;BME280;19509;43.862;26.176;2022-09-21T06:04:30;100925.69;;;12.16;62.44
33153;BME280;19509;43.862;26.176;2022-09-21T06:06:56;100919.44;;;12.22;62.62
33153;BME280;19509;43.862;26.176;2022-09-21T06:09:21;100927.06;;;12.38;61.76
33153;BME280;19509;43.862;26.176;2022-09-21T06:11:47;100920.78;;;12.51;61.09
33153;BME280;19509;43.862;26.176;2022-09-21T06:14:13;100921.53;;;12.65;61.18
33153;BME280;19509;43.862;26.176;2022-09-21T06:16:39;100923.59;;;12.69;61.04
33153;BME280;19509;43.862;26.176;2022-09-21T06:19:06;100922.78;;;12.62;61.53
33153;BME280;19509;43.862;26.176;2022-09-21T06:21:31;100918.75;;;12.85;60.94
33153;BME280;19509;43.862;26.176;2022-09-21T06:23:57;100923.78;;;13.06;60.11
33153;BME280;19509;43.862;26.176;2022-09-21T06:26:22;100923.16;;;13.04;60.60
33153;BME280;19509;43.862;26.176;2022-09-21T06:28:48;100914.06;;;12.98;59.86
33153;BME280;19509;43.862;26.176;2022-09-21T06:31:13;100931.81;;;13.19;59.67
33153;BME280;19509;43.862;26.176;2022-09-21T06:33:39;100912.09;;;13.12;59.99
33153;BME280;19509;43.862;26.176;2022-09-21T06:36:05;100923.94;;;13.18;59.80
33153;BME280;19509;43.862;26.176;2022-09-21T06:38:30;100936.59;;;13.17;59.72
33153;BME280;19509;43.862;26.176;2022-09-21T06:41:01;100926.72;;;13.36;60.42
33153;BME280;19509;43.862;26.176;2022-09-21T06:43:27;100942.00;;;13.49;59.31
33153;BME280;19509;43.862;26.176;2022-09-21T06:45:57;100946.06;;;13.58;59.44
33153;BME280;19509;43.862;26.176;2022-09-21T06:48:23;100945.28;;;13.51;58.69
33153;BME280;19509;43.862;26.176;2022-09-21T06:50:49;100941.03;;;13.62;58.26
33153;BME280;19509;43.862;26.176;2022-09-21T06:53:15;100946.28;;;13.57;59.54
33153;BME280;19509;43.862;26.176;2022-09-21T06:55:42;100938.84;;;13.77;59.29
33153;BME280;19509;43.862;26.176;2022-09-21T06:58:07;100933.00;;;13.99;57.85
33153;BME280;19509;43.862;26.176;2022-09-21T07:00:33;100935.94;;;14.15;57.39
33153;BME280;19509;43.862;26.176;2022-09-21T07:02:58;100935.03;;;14.22;58.15
33153;BME280;19509;43.862;26.176;2022-09-21T07:05:24;100940.59;;;14.45;56.32
33153;BME280;19509;43.862;26.176;2022-09-21T07:07:50;100939.16;;;14.42;56.80
33153;BME280;19509;43.862;26.176;2022-09-21T07:10:20;100942.19;;;14.34;57.15
33153;BME280;19509;43.862;26.176;2022-09-21T07:12:46;100945.63;;;14.60;57.23
33153;BME280;19509;43.862;26.176;2022-09-21T07:15:11;100945.91;;;14.70;56.58
33153;BME280;19509;43.862;26.176;2022-09-21T07:17:38;100941.72;;;14.56;56.65
33153;BME280;19509;43.862;26.176;2022-09-21T07:20:05;100943.13;;;14.77;56.37
33153;BME280;19509;43.862;26.176;2022-09-21T07:22:32;100950.94;;;14.85;56.07
33153;BME280;19509;43.862;26.176;2022-09-21T07:24:58;100944.13;;;14.46;56.79
33153;BME280;19509;43.862;26.176;2022-09-21T07:27:24;100943.81;;;14.72;57.17
33153;BME280;19509;43.862;26.176;2022-09-21T07:29:51;100940.13;;;14.97;55.31
33153;BME280;19509;43.862;26.176;2022-09-21T07:32:16;100942.56;;;15.28;55.23
33153;BME280;19509;43.862;26.176;2022-09-21T07:34:42;100948.88;;;15.52;54.29
33153;BME280;19509;43.862;26.176;2022-09-21T07:37:08;100944.97;;;15.48;52.81
33153;BME280;19509;43.862;26.176;2022-09-21T07:39:34;100946.16;;;15.52;54.91
33153;BME280;19509;43.862;26.176;2022-09-21T07:42:00;100945.66;;;15.44;53.53
33153;BME280;19509;43.862;26.176;2022-09-21T07:44:26;100940.31;;;15.67;54.24
33153;BME280;19509;43.862;26.176;2022-09-21T07:46:51;100932.25;;;15.96;53.48
33153;BME280;19509;43.862;26.176;2022-09-21T07:49:17;100936.09;;;16.23;52.28
33153;BME280;19509;43.862;26.176;2022-09-21T07:51:43;100933.22;;;16.01;52.27
33153;BME280;19509;43.862;26.176;2022-09-21T07:54:09;100931.44;;;16.07;51.49
33153;BME280;19509;43.862;26.176;2022-09-21T07:56:40;100940.31;;;15.67;53.42
33153;BME280;19509;43.862;26.176;2022-09-21T07:59:07;100940.53;;;15.12;55.32
33153;BME280;19509;43.862;26.176;2022-09-21T08:01:38;100946.38;;;14.97;55.07
33153;BME280;19509;43.862;26.176;2022-09-21T08:04:05;100942.44;;;14.81;55.46
33153;BME280;19509;43.862;26.176;2022-09-21T08:06:32;100945.88;;;14.88;55.25
33153;BME280;19509;43.862;26.176;2022-09-21T08:09:00;100933.44;;;15.11;54.64
33153;BME280;19509;43.862;26.176;2022-09-21T08:11:26;100938.50;;;15.61;53.91
33153;BME280;19509;43.862;26.176;2022-09-21T08:13:54;100931.44;;;15.95;52.46
33153;BME280;19509;43.862;26.176;2022-09-21T08:16:19;100936.31;;;15.70;51.78
33153;BME280;19509;43.862;26.176;2022-09-21T08:18:45;100936.13;;;15.53;53.32
33153;BME280;19509;43.862;26.176;2022-09-21T08:21:11;100929.31;;;15.97;52.16
33153;BME280;19509;43.862;26.176;2022-09-21T08:23:36;100930.25;;;15.91;51.18
33153;BME280;19509;43.862;26.176;2022-09-21T08:26:05;100927.06;;;16.06;51.90
33153;BME280;19509;43.862;26.176;2022-09-21T08:28:32;100917.44;;;16.39;51.32
33153;BME280;19509;43.862;26.176;2022-09-21T08:31:04;100927.47;;;16.38;51.15
33153;BME280;19509;43.862;26.176;2022-09-21T08:33:30;100928.78;;;16.64;50.58
33153;BME280;19509;43.862;26.176;2022-09-21T08:35:58;100924.63;;;16.73;49.98
33153;BME280;19509;43.862;26.176;2022-09-21T08:38:24;100920.66;;;16.24;50.74
33153;BME280;19509;43.862;26.176;2022-09-21T08:40:51;100925.19;;;16.47;49.88
33153;BME280;19509;43.862;26.176;2022-09-21T08:43:34;100928.16;;;16.74;52.02
33153;BME280;19509;43.862;26.176;2022-09-21T08:46:11;100925.91;;;16.83;50.47
33153;BME280;19509;43.862;26.176;2022-09-21T08:48:42;100913.06;;;16.95;48.84
33153;BME280;19509;43.862;26.176;2022-09-21T08:51:14;100916.72;;;16.72;49.96
33153;BME280;19509;43.862;26.176;2022-09-21T08:53:44;100921.75;;;16.51;49.56
33153;BME280;19509;43.862;26.176;2022-09-21T08:56:12;100920.63;;;16.64;50.23
33153;BME280;19509;43.862;26.176;2022-09-21T08:58:38;100917.97;;;16.52;50.06
33153;BME280;19509;43.862;26.176;2022-09-21T09:12:24;100906.84;;;17.79;47.72
33153;BME280;19509;43.862;26.176;2022-09-21T09:20:14;100901.91;;;17.08;47.55
33153;BME280;19509;43.862;26.176;2022-09-21T09:22:46;100902.03;;;17.01;48.99
33153;BME280;19509;43.862;26.176;2022-09-21T09:25:20;100891.41;;;17.67;48.39
33153;BME280;19509;43.862;26.176;2022-09-21T09:27:51;100894.19;;;17.89;47.04
33153;BME280;19509;43.862;26.176;2022-09-21T09:30:25;100893.50;;;17.99;45.76
33153;BME280;19509;43.862;26.176;2022-09-21T09:33:41;100886.66;;;17.41;47.23
33153;BME280;19509;43.862;26.176;2022-09-21T09:35:46;100889.06;;;17.37;48.72
33153;BME280;19509;43.862;26.176;2022-09-21T09:38:31;100877.75;;;18.01;48.09
33153;BME280;19509;43.862;26.176;2022-09-21T09:44:11;100874.28;;;19.41;43.88
33153;BME280;19509;43.862;26.176;2022-09-21T09:52:13;100875.91;;;19.74;42.87
33153;BME280;19509;43.862;26.176;2022-09-21T09:54:41;100875.72;;;19.96;42.37
33153;BME280;19509;43.862;26.176;2022-09-21T09:57:08;100871.59;;;19.94;41.35
33153;BME280;19509;43.862;26.176;2022-09-21T09:59:40;100869.69;;;19.89;42.27
33153;BME280;19509;43.862;26.176;2022-09-21T10:02:23;100878.47;;;19.96;42.59
33153;BME280;19509;43.862;26.176;2022-09-21T10:05:00;100870.50;;;19.90;42.56
33153;BME280;19509;43.862;26.176;2022-09-21T10:07:40;100873.25;;;19.15;42.98
33153;BME280;19509;43.862;26.176;2022-09-21T10:13:01;100876.63;;;18.19;46.32
33153;BME280;19509;43.862;26.176;2022-09-21T10:15:28;100862.88;;;18.09;46.19
33153;BME280;19509;43.862;26.176;2022-09-21T10:18:05;100867.78;;;17.90;45.93
33153;BME280;19509;43.862;26.176;2022-09-21T10:20:31;100861.41;;;17.45;48.44
33153;BME280;19509;43.862;26.176;2022-09-21T10:22:58;100859.94;;;17.55;47.45
33153;BME280;19509;43.862;26.176;2022-09-21T10:25:25;100854.25;;;17.56;46.36
33153;BME280;19509;43.862;26.176;2022-09-21T10:27:51;100855.47;;;17.48;47.45
33153;BME280;19509;43.862;26.176;2022-09-21T10:32:55;100854.06;;;17.63;47.30
33153;BME280;19509;43.862;26.176;2022-09-21T10:35:21;100845.47;;;17.71;47.10
33153;BME280;19509;43.862;26.176;2022-09-21T10:37:47;100847.31;;;18.04;47.22
33153;BME280;19509;43.862;26.176;2022-09-21T10:42:57;100835.53;;;17.77;46.70
33153;BME280;19509;43.862;26.176;2022-09-21T10:45:29;100833.31;;;17.57;48.21
33153;BME280;19509;43.862;26.176;2022-09-21T10:48:12;100828.78;;;18.06;45.91
33153;BME280;19509;43.862;26.176;2022-09-21T10:50:40;100835.81;;;18.02;45.18
33153;BME280;19509;43.862;26.176;2022-09-21T10:53:12;100832.34;;;18.56;44.36
33153;BME280;19509;43.862;26.176;2022-09-21T10:55:52;100833.72;;;18.31;43.49
33153;BME280;19509;43.862;26.176;2022-09-21T10:58:20;100832.94;;;18.36;44.64
33153;BME280;19509;43.862;26.176;2022-09-21T11:00:48;100825.56;;;18.09;45.79
33153;BME280;19509;43.862;26.176;2022-09-21T11:03:36;100832.63;;;17.83;46.25
33153;BME280;19509;43.862;26.176;2022-09-21T11:08:51;100823.78;;;17.20;46.98
33153;BME280;19509;43.862;26.176;2022-09-21T11:16:54;100822.84;;;18.58;43.83
33153;BME280;19509;43.862;26.176;2022-09-21T11:21:59;100816.03;;;18.88;42.18
33153;BME280;19509;43.862;26.176;2022-09-21T11:27:32;100808.78;;;19.94;39.44
33153;BME280;19509;43.862;26.176;2022-09-21T11:35:15;100800.56;;;18.66;41.95
33153;BME280;19509;43.862;26.176;2022-09-21T11:43:56;100794.88;;;18.41;41.74
33153;BME280;19509;43.862;26.176;2022-09-21T11:49:16;100785.22;;;19.25;41.38
33153;BME280;19509;43.862;26.176;2022-09-21T11:52:15;100788.47;;;19.22;40.92
33153;BME280;19509;43.862;26.176;2022-09-21T11:57:52;100783.97;;;19.05;39.82
33153;BME280;19509;43.862;26.176;2022-09-21T12:00:20;100772.66;;;19.24;39.16
33153;BME280;19509;43.862;26.176;2022-09-21T12:05:47;100776.41;;;18.75;39.41
33153;BME280;19509;43.862;26.176;2022-09-21T12:08:43;100774.97;;;19.05;38.68
33153;BME280;19509;43.862;26.176;2022-09-21T12:21:53;100776.84;;;19.99;37.40
33153;BME280;19509;43.862;26.176;2022-09-21T12:24:49;100779.06;;;19.97;35.68
33153;BME280;19509;43.862;26.176;2022-09-21T12:27:26;100777.97;;;20.03;37.53
33153;BME280;19509;43.862;26.176;2022-09-21T12:30:01;100774.38;;;19.88;36.25
33153;BME280;19509;43.862;26.176;2022-09-21T12:35:45;100769.38;;;20.73;35.13
33153;BME280;19509;43.862;26.176;2022-09-21T12:38:32;100773.44;;;21.16;35.77
33153;BME280;19509;43.862;26.176;2022-09-21T12:46:30;100756.38;;;22.10;33.32
33153;BME280;19509;43.862;26.176;2022-09-21T12:49:07;100752.63;;;21.95;31.69
33153;BME280;19509;43.862;26.176;2022-09-21T12:51:36;100741.03;;;21.59;34.42
33153;BME280;19509;43.862;26.176;2022-09-21T12:54:27;100748.84;;;20.91;33.61
33153;BME280;19509;43.862;26.176;2022-09-21T12:59:38;100746.88;;;20.25;35.47
33153;BME280;19509;43.862;26.176;2022-09-21T13:02:16;100744.59;;;19.81;34.99
33153;BME280;19509;43.862;26.176;2022-09-21T13:09:43;100749.88;;;20.28;36.55
33153;BME280;19509;43.862;26.176;2022-09-21T13:12:18;100742.00;;;20.73;38.65
33153;BME280;19509;43.862;26.176;2022-09-21T13:14:47;100749.66;;;20.50;36.73
33153;BME280;19509;43.862;26.176;2022-09-21T13:17:27;100749.59;;;19.47;37.45
33153;BME280;19509;43.862;26.176;2022-09-21T13:20:02;100759.28;;;18.53;38.73
33153;BME280;19509;43.862;26.176;2022-09-21T13:22:35;100768.69;;;18.40;38.96
33153;BME280;19509;43.862;26.176;2022-09-21T13:32:57;100759.06;;;17.61;43.03
33153;BME280;19509;43.862;26.176;2022-09-21T13:41:23;100765.81;;;17.59;40.51
33153;BME280;19509;43.862;26.176;2022-09-21T13:54:59;100764.00;;;17.64;39.80
33153;BME280;19509;43.862;26.176;2022-09-21T14:00:23;100765.41;;;17.67;38.95
33153;BME280;19509;43.862;26.176;2022-09-21T14:08:27;100773.00;;;17.65;40.08
33153;BME280;19509;43.862;26.176;2022-09-21T14:13:41;100782.16;;;17.59;44.76
33153;BME280;19509;43.862;26.176;2022-09-21T14:18:54;100781.81;;;17.33;47.32
33153;BME280;19509;43.862;26.176;2022-09-21T14:21:20;100788.38;;;17.15;47.95
33153;BME280;19509;43.862;26.176;2022-09-21T14:29:07;100794.91;;;16.52;52.50
33153;BME280;19509;43.862;26.176;2022-09-21T14:31:37;100783.91;;;16.30;53.95
33153;BME280;19509;43.862;26.176;2022-09-21T14:34:05;100787.56;;;16.07;54.78
33153;BME280;19509;43.862;26.176;2022-09-21T14:36:42;100781.28;;;15.54;54.82
33153;BME280;19509;43.862;26.176;2022-09-21T14:39:23;100780.22;;;15.44;56.16
33153;BME280;19509;43.862;26.176;2022-09-21T14:41:53;100774.50;;;15.05;56.23
33153;BME280;19509;43.862;26.176;2022-09-21T14:44:23;100775.78;;;15.02;55.39
33153;BME280;19509;43.862;26.176;2022-09-21T14:50:42;100775.06;;;15.30;53.44
33153;BME280;19509;43.862;26.176;2022-09-21T14:58:31;100773.50;;;15.70;52.33
33153;BME280;19509;43.862;26.176;2022-09-21T15:06:56;100770.63;;;15.65;52.08
33153;BME280;19509;43.862;26.176;2022-09-21T15:15:33;100782.00;;;15.73;50.60
33153;BME280;19509;43.862;26.176;2022-09-21T15:18:13;100785.75;;;15.49;50.68
33153;BME280;19509;43.862;26.176;2022-09-21T15:20:42;100797.56;;;15.54;51.72
33153;BME280;19509;43.862;26.176;2022-09-21T15:23:17;100791.31;;;15.54;51.64
33153;BME280;19509;43.862;26.176;2022-09-21T15:25:53;100792.38;;;15.53;51.81
33153;BME280;19509;43.862;26.176;2022-09-21T15:28:26;100784.13;;;15.48;52.36
33153;BME280;19509;43.862;26.176;2022-09-21T15:30:56;100790.25;;;15.31;52.60
33153;BME280;19509;43.862;26.176;2022-09-21T15:33:22;100794.16;;;15.24;53.10
33153;BME280;19509;43.862;26.176;2022-09-21T15:35:48;100793.59;;;15.22;52.69
33153;BME280;19509;43.862;26.176;2022-09-21T15:38:29;100794.16;;;15.24;52.75
33153;BME280;19509;43.862;26.176;2022-09-21T15:40:55;100792.50;;;15.11;53.09
33153;BME280;19509;43.862;26.176;2022-09-21T15:43:20;100793.81;;;15.08;53.44
33153;BME280;19509;43.862;26.176;2022-09-21T15:45:50;100795.94;;;14.95;54.29
33153;BME280;19509;43.862;26.176;2022-09-21T15:48:20;100792.38;;;14.82;55.18
33153;BME280;19509;43.862;26.176;2022-09-21T15:50:49;100796.00;;;14.64;56.39
33153;BME280;19509;43.862;26.176;2022-09-21T15:53:44;100800.91;;;14.56;56.53
33153;BME280;19509;43.862;26.176;2022-09-21T15:56:22;100798.63;;;14.23;57.07
33153;BME280;19509;43.862;26.176;2022-09-21T15:58:50;100811.97;;;14.06;58.12
33153;BME280;19509;43.862;26.176;2022-09-21T16:01:20;100810.75;;;14.20;57.58
33153;BME280;19509;43.862;26.176;2022-09-21T16:03:48;100819.34;;;13.99;58.13
33153;BME280;19509;43.862;26.176;2022-09-21T16:06:34;100819.41;;;13.92;58.51
33153;BME280;19509;43.862;26.176;2022-09-21T16:11:48;100820.50;;;13.72;57.79
33153;BME280;19509;43.862;26.176;2022-09-21T16:14:14;100823.78;;;13.75;57.89
33153;BME280;19509;43.862;26.176;2022-09-21T16:17:18;100825.47;;;13.76;58.39
33153;BME280;19509;43.862;26.176;2022-09-21T16:22:28;100825.69;;;13.74;57.32
33153;BME280;19509;43.862;26.176;2022-09-21T16:24:59;100833.41;;;13.70;57.20
33153;BME280;19509;43.862;26.176;2022-09-21T16:27:28;100825.59;;;13.62;56.12
33153;BME280;19509;43.862;26.176;2022-09-21T16:29:55;100829.88;;;13.70;55.95